Régionale sprint 1 organisée par les jeunes du TAD Douai (59) - Orange H

Date : 11/09/2022
Couleur : Orange
Valeur du circuit : 7569725 point × seconde

Place Nom Licence Catégorie Club Temps CN à J-15 Valeur Points Différence Nouveau CN
1 BAUDSON Jérôme 22215 H45 5906HF 0:19:02 8213 9379246 6628 -1585 8299
2 SMIRNOV Serguei 9630 H40 5906HF 0:19:08 6754 7753592 6594 -160 6759
3 HALTZ Louis 24070 H21 5907HF 0:20:06 9178 11068668 6277 -2901 9102
4 GRATTEPANCHE Florent 30350 H21 5907HF 0:20:29 7307 8980303 6159 -1148 7206
5 ROY Vincent 28034 H21 5906HF 0:20:37 6813 8427681 6119 -694 6827
6 CHABE LUCA 34520 H18 6208HF 0:21:00 5658 7129080 6008 +350 5804
7 VEROVE Vianney 35558 H16 5907HF 0:21:19 4313 5516327 5918 +1605 4594
8 CHOTIN Max 32832 H20 5907HF 0:22:14 5316 7091544 5674 +571 5369
9 MOTHERON Nathan 40482 H16 6208HF 0:22:31 3764 5085164 5603 +1839 4085
10 BOUQUILLION MAXIME 42623 H21 6208HF 0:22:36 5336 7235616 5582 +246 5482
11 DANEL Jerome 16280 H50 5906HF 0:22:56 7151 9839776 5501 -1650 7146
12 DURAND Corentin 41580 H21 5907HF 0:22:58 4683 6453174 5493 +810 5351
13 GROSSI Kurtys 22925 H21 5907HF 0:23:30 5369 0
14 PRINS Grégory 13757 H40 6208HF 0:23:33 6436 9094068 5357 -1079 6436
15 JAYET ALEXIS 37104 H16 6208HF 0:23:43 3535 5030305 5320 +1785 3787
16 NAPIERALA Nicolas 26424 H21 5907HF 0:23:55 6584 9448040 5275 -1309 6397
17 POULAIN Joël 1947 H60 5909HF 0:24:59 6437 9649063 5050 -1387 6410
18 SMIRNOV Konstantin 9629 H60 5906HF 0:25:17 6748 10236716 4990 -1758 6685
19 URVOY Ewan 27614 H20 6203HF 0:25:40 4201 6469540 4915 +798 4439
20 RAU Hervé 25624 H45 5909HF 0:25:51 5469 8482419 4881 -588 5455
21 CLABAUX Sylvain 36262 H35 6208HF 0:26:13 4984 7839832 4812 -172 4972
22 SCHIMPF Laurent 18786 H50 5909HF 0:26:46 5699 9152594 4713 -986 5699
23 PRUVOST Stephane 22302 H50 6208HF 0:27:17 5460 8938020 4624 -836 5460
24 DEWILDE Stéphane 35855 H45 5907HF 0:27:44 3037 5053568 4549 +1512 3709
25 BERTOUT Bastien 36151 H45 5906HF 0:28:22 4692 7985784 4448 -244 4692
26 TETU Alexandre 28691 H21 6203HF 0:28:24 4907 8361528 4442 -465 4907
27 FLICOTEAUX Raphaël 722 H40 5907HF 0:28:32 6366 10898592 4422 -1944 6339
28 MULLER Aristide 39870 H21 5906HF 0:28:40 3478 5982160 4401 +923 4086
29 ROCHET THOMAS 28689 H21 6208HF 0:28:55 4363 0
30 DASSONVILLE Gabriel 35542 H16 6208HF 0:29:16 3716 6525296 4311 +595 3777
31 MARCHER Wolfgang 13097 H50 1705NA 0:29:23 5426 4294 -1132 5371
32 LOTERIE Jean-Francois 5421 H55 5907HF 0:30:41 5400 4112 -1288 5338
33 SENCE Stephane 16450 H45 5906HF 0:30:46 5816 4101 -1715 5816
34 MOREAU-DESCOINGS François 20722 H45 5906HF 0:30:47 3691 4098 +407 3929
35 ARROQUI Philippe 22651 H50 5909HF 0:32:23 4434 3896 -538 4410
36 PARENT Marc 26905 H55 6208HF 0:32:31 3213 3880 +796 3330
37 MUDES Enzo 40795 H16 6208HF 0:33:10 2620 3804 +1184 2957
38 VERNEAU BRUNO 39451 H55 6208HF 0:33:14 4401 3796 -605 4390
39 DEVIGNE Maxence 41653 H21 5906HF 0:34:12 2392 3689 +1297 2589
40 CAT Alain 17630 H50 5907HF 0:34:28 3660 0
41 HUMBERTCLAUDE Jean-Paul 16205 H75 5909HF 0:35:16 3759 3577 -182 3759
42 MARSSET Rémy 42730 H21 6208HF 0:40:53 2517 3086 +569 3172
43 LAMINETTE François 17202 H60 5907HF 0:46:23 2219 2720 +590 2421
44 CUPIAL Laurent 43334 H50 5906HF 0:48:20 2610 0
45 GAILLARD Gilles 36601 H70 6099HF 0:56:53 2624 2218 -406 2606
BOULANGER Patrick 8947 H60 5907HF pm 4284 0 4353
DONNET Corentin 41502 H21 0207HF pm 3155 0 3155
RADONDY Thomas 25199 H20 5907HF disqualifié 9481 0 9514